createdAt,value
2018-07-06T00:01:01.659Z,48.70
2018-07-06T00:03:41.257Z,48.73
2018-07-06T00:06:20.951Z,49.53
2018-07-06T00:09:00.669Z,49.27
2018-07-06T00:11:40.312Z,49.64
2018-07-06T00:14:19.881Z,49.80
2018-07-06T00:16:59.380Z,50.01
2018-07-06T00:19:39.040Z,49.67
2018-07-06T00:22:18.631Z,50.05
2018-07-06T00:24:58.380Z,49.63
2018-07-06T00:27:38.062Z,50.17
2018-07-06T00:30:17.615Z,49.59
2018-07-06T00:32:57.082Z,50.10
2018-07-06T00:35:36.621Z,49.56
2018-07-06T00:38:16.072Z,49.86
2018-07-06T00:40:55.643Z,50.53
2018-07-06T00:43:35.348Z,50.26
2018-07-06T00:46:14.854Z,50.11
2018-07-06T00:48:54.685Z,50.72
2018-07-06T00:51:34.110Z,50.22
2018-07-06T00:54:13.764Z,50.29
2018-07-06T00:56:53.292Z,49.88
2018-07-06T00:59:32.876Z,50.61
2018-07-06T01:02:12.554Z,51.33
2018-07-06T01:04:52.192Z,50.44
2018-07-06T01:07:31.734Z,51.06
2018-07-06T01:10:11.304Z,51.24
2018-07-06T01:12:56.254Z,50.88
2018-07-06T01:15:36.865Z,50.26
2018-07-06T01:18:17.485Z,51.44
2018-07-06T01:20:57.232Z,51.51
2018-07-06T01:23:36.707Z,51.35
2018-07-06T01:26:16.940Z,51.52
2018-07-06T01:28:56.808Z,51.95
2018-07-06T01:31:36.356Z,52.19
2018-07-06T01:34:15.857Z,52.19
2018-07-06T01:36:55.466Z,52.74
2018-07-06T01:39:35.076Z,51.95
2018-07-06T01:42:14.688Z,51.70
2018-07-06T01:44:54.278Z,52.11
2018-07-06T01:47:33.938Z,52.15
2018-07-06T01:50:13.499Z,52.01
2018-07-06T01:52:53.193Z,52.46
2018-07-06T01:55:32.595Z,53.04
2018-07-06T01:58:12.253Z,52.83
2018-07-06T02:00:51.744Z,52.64
2018-07-06T02:03:31.296Z,53.23
2018-07-06T02:06:11.015Z,52.94
2018-07-06T02:08:50.497Z,53.00
2018-07-06T02:11:30.124Z,52.98
2018-07-06T02:14:09.573Z,52.53
2018-07-06T02:16:49.181Z,52.67
2018-07-06T02:19:28.710Z,52.60
2018-07-06T02:22:08.211Z,53.50
2018-07-06T02:24:47.692Z,53.01
2018-07-06T02:27:27.277Z,53.71
2018-07-06T02:30:06.863Z,53.59
2018-07-06T02:32:46.334Z,53.34
2018-07-06T02:35:25.879Z,54.18
2018-07-06T02:38:05.609Z,54.11
2018-07-06T02:40:45.248Z,54.14
2018-07-06T02:43:24.746Z,53.95
2018-07-06T02:46:04.415Z,53.42
2018-07-06T02:48:43.905Z,53.50
2018-07-06T02:51:23.539Z,53.82
2018-07-06T02:54:03.091Z,53.72
2018-07-06T02:56:42.779Z,53.48
2018-07-06T02:59:22.284Z,54.17
2018-07-06T03:02:01.848Z,54.23
2018-07-06T03:04:41.372Z,54.27
2018-07-06T03:07:20.922Z,53.84
2018-07-06T03:10:00.534Z,53.93
2018-07-06T03:12:40.183Z,54.57
2018-07-06T03:15:19.879Z,54.47
2018-07-06T03:17:59.533Z,54.46
2018-07-06T03:20:39.009Z,54.33
2018-07-06T03:23:18.870Z,54.99
2018-07-06T03:25:58.455Z,54.66
2018-07-06T03:28:38.152Z,54.56
2018-07-06T03:31:17.556Z,54.91
2018-07-06T03:33:57.014Z,54.85
2018-07-06T03:36:36.668Z,55.39
2018-07-06T03:39:16.324Z,54.52
2018-07-06T03:41:56.045Z,54.91
2018-07-06T03:44:35.596Z,54.59
2018-07-06T03:47:15.473Z,55.01
2018-07-06T03:49:55.066Z,54.70
2018-07-06T03:52:34.612Z,55.20
2018-07-06T03:55:14.359Z,54.74
2018-07-06T03:57:54.121Z,54.82
2018-07-06T04:00:33.604Z,55.07
2018-07-06T04:03:13.404Z,55.15
2018-07-06T04:05:53.792Z,55.28
2018-07-06T04:08:33.350Z,54.60
2018-07-06T04:11:12.881Z,55.20
2018-07-06T04:13:52.619Z,55.21
2018-07-06T04:16:32.176Z,54.31
2018-07-06T04:19:12.542Z,54.23
2018-07-06T04:21:53.513Z,54.23
2018-07-06T04:24:33.053Z,54.25
2018-07-06T04:27:13.280Z,55.03
2018-07-06T04:29:52.788Z,54.81
2018-07-06T04:32:32.823Z,54.72
2018-07-06T04:35:12.757Z,55.36
2018-07-06T04:37:52.561Z,55.60
2018-07-06T04:40:32.103Z,54.03
2018-07-06T04:43:11.739Z,54.08
2018-07-06T04:45:51.397Z,53.77
2018-07-06T04:48:30.819Z,54.13
2018-07-06T04:51:10.389Z,53.86
2018-07-06T04:53:49.904Z,53.92
2018-07-06T04:56:29.427Z,53.62
2018-07-06T04:59:08.887Z,54.44
2018-07-06T05:01:48.398Z,54.45
2018-07-06T05:04:27.896Z,54.42
2018-07-06T05:07:07.574Z,53.80
2018-07-06T05:09:47.095Z,53.41
2018-07-06T05:12:26.905Z,52.85
2018-07-06T05:15:07.158Z,53.32
2018-07-06T05:17:46.893Z,52.91
2018-07-06T05:20:26.570Z,52.52
2018-07-06T05:23:06.022Z,52.72
2018-07-06T05:25:45.592Z,52.15
2018-07-06T05:28:25.179Z,52.27
2018-07-06T05:31:04.750Z,52.91
2018-07-06T05:33:44.511Z,53.05
2018-07-06T05:36:24.143Z,52.17
2018-07-06T05:39:04.126Z,52.36
2018-07-06T05:41:43.648Z,52.73
2018-07-06T05:44:23.450Z,51.80
2018-07-06T05:47:03.185Z,51.89
2018-07-06T05:49:42.951Z,52.08
2018-07-06T05:52:22.619Z,51.55
2018-07-06T05:55:02.103Z,51.21
2018-07-06T05:57:41.577Z,51.21
2018-07-06T06:00:21.244Z,50.82
2018-07-06T06:03:00.752Z,51.65
2018-07-06T06:05:40.321Z,50.78
2018-07-06T06:08:07.679Z,50.55
2018-07-06T06:10:36.193Z,50.34
2018-07-06T06:13:04.764Z,50.73
2018-07-06T06:15:33.292Z,50.54
2018-07-06T06:18:01.910Z,51.32
2018-07-06T06:20:30.475Z,51.18
2018-07-06T06:22:59.046Z,50.37
2018-07-06T06:25:28.136Z,50.03
2018-07-06T06:27:56.695Z,49.34
2018-07-06T06:30:25.203Z,49.14
2018-07-06T06:32:53.789Z,49.44
2018-07-06T06:35:22.610Z,48.99
2018-07-06T06:37:51.242Z,50.19
2018-07-06T06:40:20.048Z,48.96
2018-07-06T06:42:48.672Z,48.16
2018-07-06T06:45:17.349Z,47.82
2018-07-06T06:47:46.409Z,47.13
2018-07-06T06:50:15.010Z,47.19
2018-07-06T06:52:43.570Z,46.72
2018-07-06T06:55:12.397Z,46.67
2018-07-06T06:57:41.160Z,46.63
2018-07-06T07:00:09.871Z,46.17
2018-07-06T07:02:38.513Z,46.67
2018-07-06T07:05:07.234Z,45.25
2018-07-06T07:07:36.068Z,45.65
2018-07-06T07:10:04.690Z,45.30
2018-07-06T07:12:33.587Z,45.59
2018-07-06T07:15:02.300Z,45.69
2018-07-06T07:17:31.301Z,45.13
2018-07-06T07:20:00.125Z,44.36
2018-07-06T07:22:28.884Z,44.42
2018-07-06T07:24:57.675Z,44.99
2018-07-06T07:27:26.390Z,44.75
2018-07-06T07:29:55.101Z,44.64
2018-07-06T07:32:23.767Z,44.15
2018-07-06T07:34:52.385Z,43.54
2018-07-06T07:37:20.971Z,43.94
2018-07-06T07:39:49.625Z,43.85
2018-07-06T07:42:18.341Z,43.82
2018-07-06T07:44:46.914Z,43.85
2018-07-06T07:47:15.505Z,43.17
2018-07-06T07:49:44.265Z,42.80
2018-07-06T07:52:24.205Z,43.29
2018-07-06T07:54:53.889Z,43.68
2018-07-06T07:57:23.109Z,43.03
2018-07-06T07:59:53.617Z,43.00
2018-07-06T08:02:22.464Z,43.76
2018-07-06T08:04:51.362Z,43.01
2018-07-06T08:07:20.097Z,43.95
2018-07-06T08:09:49.247Z,45.56
2018-07-06T08:12:17.945Z,43.31
2018-07-06T08:14:46.657Z,43.61
2018-07-06T08:17:15.314Z,43.93
2018-07-06T08:19:44.713Z,42.42
2018-07-06T08:22:14.366Z,43.74
2018-07-06T08:24:43.113Z,43.55
2018-07-06T08:27:12.585Z,43.67
2018-07-06T08:29:41.363Z,42.58
2018-07-06T08:32:09.996Z,43.43
2018-07-06T08:34:49.697Z,42.51
2018-07-06T08:37:30.729Z,43.63
2018-07-06T08:39:59.783Z,42.96
2018-07-06T08:42:29.709Z,42.93
2018-07-06T08:44:59.108Z,42.88
2018-07-06T08:47:27.660Z,43.73
2018-07-06T08:49:57.057Z,43.51
2018-07-06T08:52:25.661Z,43.67
2018-07-06T08:54:54.395Z,43.66
2018-07-06T08:57:24.510Z,43.19
2018-07-06T08:59:53.543Z,43.90
2018-07-06T09:02:22.456Z,42.30
2018-07-06T09:04:51.697Z,41.11
2018-07-06T09:07:20.257Z,41.23
2018-07-06T09:09:48.877Z,39.98
2018-07-06T09:12:17.337Z,40.69
2018-07-06T09:14:45.834Z,40.06
2018-07-06T09:17:15.325Z,39.58
2018-07-06T09:19:44.527Z,38.47
2018-07-06T09:22:13.637Z,37.35
2018-07-06T09:24:42.835Z,35.46
2018-07-06T09:27:11.439Z,35.37
2018-07-06T09:29:40.232Z,35.84
2018-07-06T09:32:09.423Z,34.22
2018-07-06T09:34:38.505Z,33.97
2018-07-06T09:37:07.307Z,32.91
2018-07-06T09:39:36.063Z,32.73
2018-07-06T09:42:04.761Z,31.43
2018-07-06T09:44:33.521Z,30.09
2018-07-06T09:47:02.179Z,27.89
2018-07-06T09:49:30.959Z,25.94
2018-07-06T09:51:59.562Z,25.69
2018-07-06T09:54:28.329Z,23.83
2018-07-06T09:56:56.943Z,22.32
2018-07-06T09:59:25.814Z,22.79
2018-07-06T10:01:54.447Z,22.08
2018-07-06T10:04:23.080Z,20.92
2018-07-06T10:06:51.677Z,20.74
2018-07-06T10:09:20.227Z,20.81
2018-07-06T10:11:49.313Z,19.82
2018-07-06T10:14:17.865Z,19.76
2018-07-06T10:16:46.502Z,18.00
2018-07-06T10:19:15.445Z,17.60
2018-07-06T10:21:44.102Z,17.57
2018-07-06T10:24:12.753Z,17.33
2018-07-06T10:26:41.296Z,16.89
2018-07-06T10:30:20.049Z,16.49
2018-07-06T10:32:48.979Z,16.73
2018-07-06T10:35:17.988Z,16.49
2018-07-06T10:37:46.505Z,15.37
2018-07-06T10:40:15.131Z,15.07
2018-07-06T10:42:43.878Z,15.28
2018-07-06T10:45:12.496Z,15.17
2018-07-06T10:47:41.731Z,16.66
2018-07-06T10:50:10.385Z,17.28
2018-07-06T10:52:38.944Z,17.44
2018-07-06T10:55:07.715Z,17.13
2018-07-06T10:57:36.314Z,17.85
2018-07-06T11:00:04.861Z,18.87
2018-07-06T11:02:33.482Z,18.63
2018-07-06T11:05:02.101Z,17.54
2018-07-06T11:07:30.689Z,17.32
2018-07-06T11:09:59.299Z,16.16
2018-07-06T11:12:28.155Z,17.12
2018-07-06T11:14:56.704Z,16.47
2018-07-06T11:17:25.288Z,17.40
2018-07-06T11:19:53.901Z,17.60
2018-07-06T11:22:22.615Z,17.69
2018-07-06T11:24:51.202Z,18.79
2018-07-06T11:27:19.882Z,18.02
2018-07-06T11:29:48.640Z,18.49
2018-07-06T11:32:17.358Z,19.32
2018-07-06T11:34:45.919Z,19.57
2018-07-06T11:37:14.517Z,20.89
2018-07-06T11:39:43.106Z,21.00
2018-07-06T11:42:11.750Z,20.96
2018-07-06T11:44:40.409Z,20.93
2018-07-06T11:47:09.042Z,21.45
2018-07-06T11:49:37.838Z,22.84
2018-07-06T11:52:06.468Z,23.65
2018-07-06T11:54:35.132Z,23.66
2018-07-06T11:57:04.301Z,24.01
2018-07-06T11:59:33.033Z,23.85
2018-07-06T12:02:01.638Z,23.85
2018-07-06T12:04:30.286Z,24.37
2018-07-06T12:06:59.034Z,24.87
2018-07-06T12:09:27.578Z,25.50
2018-07-06T12:11:56.253Z,25.21
2018-07-06T12:14:24.799Z,25.03
2018-07-06T12:16:53.553Z,25.64
2018-07-06T12:19:22.253Z,26.32
2018-07-06T12:21:52.115Z,26.00
2018-07-06T12:24:20.790Z,25.74
2018-07-06T12:26:49.372Z,26.69
2018-07-06T12:29:18.076Z,26.41
2018-07-06T12:31:46.732Z,26.75
2018-07-06T12:34:15.278Z,25.79
2018-07-06T12:36:43.877Z,26.49
2018-07-06T12:39:12.455Z,26.86
2018-07-06T12:41:41.081Z,25.74
2018-07-06T12:44:09.683Z,26.30
2018-07-06T12:46:38.343Z,26.25
2018-07-06T12:49:06.925Z,26.86
2018-07-06T12:51:35.572Z,27.30
2018-07-06T12:54:04.217Z,27.05
2018-07-06T12:56:32.941Z,27.25
2018-07-06T13:04:42.186Z,26.38
2018-07-06T13:07:10.854Z,27.34
2018-07-06T13:09:39.512Z,27.09
2018-07-06T13:12:08.205Z,27.84
2018-07-06T13:14:36.718Z,27.12
2018-07-06T13:17:05.399Z,27.21
2018-07-06T13:19:33.958Z,27.50
2018-07-06T13:22:02.519Z,27.48
2018-07-06T13:24:31.089Z,28.52
2018-07-06T13:26:59.706Z,27.98
2018-07-06T13:29:28.338Z,27.62
2018-07-06T13:31:57.039Z,27.48
2018-07-06T13:34:25.719Z,26.83
2018-07-06T13:36:54.310Z,26.29
2018-07-06T13:39:23.160Z,26.26
2018-07-06T13:41:51.885Z,25.56
2018-07-06T13:44:20.517Z,25.17
2018-07-06T13:46:49.295Z,25.12
2018-07-06T13:49:18.708Z,27.31
2018-07-06T13:51:47.837Z,27.02
2018-07-06T13:54:16.480Z,26.20
2018-07-06T13:56:45.177Z,26.60
2018-07-06T13:59:13.770Z,27.05
2018-07-06T14:01:42.871Z,27.57
2018-07-06T14:04:11.426Z,28.77
2018-07-06T14:06:40.011Z,28.34
2018-07-06T14:09:08.572Z,28.53
2018-07-06T14:11:37.110Z,29.12
2018-07-06T14:14:05.673Z,30.26
2018-07-06T14:16:34.237Z,30.01
2018-07-06T14:19:02.828Z,29.05
2018-07-06T14:21:31.503Z,29.70
2018-07-06T14:24:00.031Z,29.12
2018-07-06T14:26:28.662Z,29.26
2018-07-06T14:28:57.289Z,28.88
2018-07-06T14:31:25.921Z,28.43
2018-07-06T14:33:54.635Z,29.44
2018-07-06T14:36:23.216Z,28.16
2018-07-06T14:38:51.811Z,28.69
2018-07-06T14:41:20.385Z,28.37
2018-07-06T14:43:48.950Z,27.94
2018-07-06T14:46:17.517Z,28.84
2018-07-06T14:48:46.109Z,28.21
2018-07-06T14:51:14.710Z,28.53
2018-07-06T14:53:43.432Z,28.32
2018-07-06T14:56:12.068Z,28.14
2018-07-06T14:58:40.730Z,27.99
2018-07-06T15:01:09.380Z,27.87
2018-07-06T15:03:37.984Z,28.44
2018-07-06T15:06:06.483Z,28.55
2018-07-06T15:08:35.128Z,28.49
2018-07-06T15:11:03.697Z,29.06
2018-07-06T15:13:32.302Z,28.44
2018-07-06T15:16:00.926Z,28.54
2018-07-06T15:18:29.457Z,28.61
2018-07-06T15:20:58.063Z,28.34
2018-07-06T15:23:26.572Z,28.28
2018-07-06T15:25:55.166Z,28.09
2018-07-06T15:28:23.825Z,27.87
2018-07-06T15:30:52.362Z,28.33
2018-07-06T15:33:21.024Z,29.08
2018-07-06T15:35:49.714Z,28.25
2018-07-06T15:38:18.348Z,28.58
2018-07-06T15:40:46.947Z,28.70
2018-07-06T15:43:15.746Z,29.24
2018-07-06T15:45:44.438Z,28.63
2018-07-06T15:48:13.347Z,28.71
2018-07-06T15:50:42.022Z,29.03
2018-07-06T15:53:10.929Z,29.20
2018-07-06T15:55:39.559Z,29.08
2018-07-06T15:58:08.099Z,28.50
2018-07-06T16:00:36.991Z,28.66
2018-07-06T16:03:05.877Z,29.17
2018-07-06T16:05:34.827Z,28.49
2018-07-06T16:08:03.444Z,28.73
2018-07-06T16:10:32.071Z,28.86
2018-07-06T16:13:00.734Z,29.02
2018-07-06T16:15:29.433Z,29.68
2018-07-06T16:17:58.093Z,29.26
2018-07-06T16:20:26.726Z,29.22
2018-07-06T16:22:55.337Z,28.87
2018-07-06T16:25:24.072Z,29.35
2018-07-06T16:27:53.016Z,28.99
2018-07-06T16:30:21.702Z,29.13
2018-07-06T16:32:50.492Z,28.84
2018-07-06T16:35:19.170Z,29.24
2018-07-06T16:37:47.921Z,29.61
2018-07-06T16:40:16.562Z,30.28
2018-07-06T16:42:45.077Z,31.05
2018-07-06T16:45:13.719Z,29.22
2018-07-06T16:47:42.316Z,30.04
2018-07-06T16:50:10.989Z,29.29
2018-07-06T16:52:39.630Z,29.79
2018-07-06T16:55:08.204Z,29.89
2018-07-06T16:57:36.717Z,29.18
2018-07-06T17:00:05.462Z,29.86
2018-07-06T17:02:35.050Z,29.24
2018-07-06T17:05:03.668Z,29.78
2018-07-06T17:07:32.256Z,29.35
2018-07-06T17:10:00.986Z,29.01
2018-07-06T17:12:29.605Z,29.20
2018-07-06T17:14:58.315Z,28.72
2018-07-06T17:17:26.940Z,29.34
2018-07-06T17:19:55.703Z,29.84
2018-07-06T17:22:24.572Z,29.58
2018-07-06T17:24:53.219Z,29.79
2018-07-06T17:27:22.113Z,30.59
2018-07-06T17:29:50.830Z,30.79
2018-07-06T17:32:19.586Z,30.50
2018-07-06T17:34:48.485Z,32.01
2018-07-06T17:37:17.155Z,30.79
2018-07-06T17:39:45.842Z,30.67
2018-07-06T17:42:14.511Z,30.72
2018-07-06T17:44:43.415Z,31.35
2018-07-06T17:47:12.175Z,30.99
2018-07-06T17:49:40.867Z,31.01
2018-07-06T17:52:09.551Z,30.92
2018-07-06T17:54:38.346Z,31.51
2018-07-06T17:57:07.290Z,31.78
2018-07-06T17:59:35.952Z,30.93
2018-07-06T18:02:04.654Z,32.27
2018-07-06T18:04:33.577Z,30.74
2018-07-06T18:07:02.264Z,31.62
2018-07-06T18:09:30.872Z,31.46
2018-07-06T18:11:59.523Z,31.71
2018-07-06T18:14:28.167Z,32.29
2018-07-06T18:16:56.808Z,32.08
2018-07-06T18:19:25.505Z,32.64
2018-07-06T18:21:54.252Z,31.73
2018-07-06T18:24:22.934Z,32.35
2018-07-06T18:26:51.554Z,33.84
2018-07-06T18:29:20.044Z,33.22
2018-07-06T18:31:48.622Z,33.27
2018-07-06T18:34:17.202Z,33.64
2018-07-06T18:36:45.678Z,32.82
2018-07-06T18:39:14.242Z,33.32
2018-07-06T18:41:42.873Z,33.63
2018-07-06T18:44:11.749Z,33.64
2018-07-06T18:46:41.130Z,34.95
2018-07-06T18:49:09.727Z,34.90
2018-07-06T18:51:38.404Z,34.88
2018-07-06T18:54:07.208Z,34.41
2018-07-06T18:56:35.996Z,35.13
2018-07-06T18:59:04.542Z,34.69
2018-07-06T19:01:33.105Z,34.77
2018-07-06T19:04:01.616Z,34.84
2018-07-06T19:06:30.371Z,36.24
2018-07-06T19:08:58.953Z,35.46
2018-07-06T19:11:27.638Z,35.79
2018-07-06T19:13:56.283Z,35.08
2018-07-06T19:16:25.272Z,36.47
2018-07-06T19:18:53.920Z,36.46
2018-07-06T19:21:22.691Z,37.03
2018-07-06T19:23:51.266Z,35.52
2018-07-06T19:26:20.095Z,36.48
2018-07-06T19:28:48.720Z,36.87
2018-07-06T19:31:17.769Z,36.45
2018-07-06T19:33:46.540Z,36.24
2018-07-06T19:36:15.154Z,36.64
2018-07-06T19:38:43.744Z,37.37
2018-07-06T19:41:12.827Z,36.71
2018-07-06T19:43:41.481Z,37.34
2018-07-06T19:46:10.154Z,37.43
2018-07-06T19:48:38.796Z,37.52
2018-07-06T19:51:07.295Z,37.59
2018-07-06T19:53:35.934Z,36.38
2018-07-06T19:56:04.688Z,36.80
2018-07-06T19:58:33.293Z,36.30
2018-07-06T20:01:01.916Z,36.68
2018-07-06T20:03:30.526Z,36.87
2018-07-06T20:05:59.081Z,36.75
2018-07-06T20:08:27.762Z,37.74
2018-07-06T20:10:56.336Z,37.09
2018-07-06T20:13:24.883Z,37.84
2018-07-06T20:15:53.497Z,37.06
2018-07-06T20:18:22.184Z,37.20
2018-07-06T20:20:50.799Z,37.34
2018-07-06T20:23:19.431Z,37.24
2018-07-06T20:25:48.136Z,37.22
2018-07-06T20:28:16.675Z,37.73
2018-07-06T20:30:45.200Z,37.65
2018-07-06T20:33:13.755Z,38.20
2018-07-06T20:35:42.443Z,37.86
2018-07-06T20:38:11.190Z,39.08
2018-07-06T20:40:39.842Z,39.34
2018-07-06T20:43:08.377Z,38.70
2018-07-06T20:45:37.178Z,39.32
2018-07-06T20:48:05.799Z,40.12
2018-07-06T20:50:34.467Z,40.58
2018-07-06T20:53:03.264Z,39.67
2018-07-06T20:55:31.827Z,39.87
2018-07-06T20:58:00.610Z,40.35
2018-07-06T21:00:29.247Z,40.37
2018-07-06T21:02:58.063Z,41.35
2018-07-06T21:05:26.744Z,40.34
2018-07-06T21:07:55.452Z,41.77
2018-07-06T21:10:24.204Z,40.95
2018-07-06T21:12:53.010Z,41.80
2018-07-06T21:15:26.010Z,41.58
2018-07-06T21:17:55.646Z,42.17
2018-07-06T21:20:25.384Z,42.17
2018-07-06T21:22:55.209Z,41.65
2018-07-06T21:25:23.857Z,42.30
2018-07-06T21:27:52.519Z,42.35
2018-07-06T21:30:21.244Z,41.98
2018-07-06T21:32:50.944Z,41.46
2018-07-06T21:35:19.615Z,42.39
2018-07-06T21:37:48.397Z,42.10
2018-07-06T21:40:17.135Z,42.37
2018-07-06T21:42:45.818Z,41.33
2018-07-06T21:45:14.453Z,41.83
2018-07-06T21:47:43.171Z,41.79
2018-07-06T21:50:11.830Z,41.94
2018-07-06T21:52:40.549Z,41.69
2018-07-06T21:55:09.388Z,42.18
2018-07-06T21:57:38.105Z,42.11
2018-07-06T22:00:06.852Z,42.88
2018-07-06T22:02:35.700Z,43.10
2018-07-06T22:05:04.362Z,43.57
2018-07-06T22:07:33.023Z,43.20
2018-07-06T22:10:01.702Z,43.21
2018-07-06T22:12:30.434Z,43.60
2018-07-06T22:14:59.038Z,43.00
2018-07-06T22:17:27.652Z,42.80
2018-07-06T22:19:56.300Z,43.13
2018-07-06T22:22:24.900Z,43.52
2018-07-06T22:24:53.584Z,44.01
2018-07-06T22:27:22.142Z,43.97
2018-07-06T22:29:50.759Z,43.90
2018-07-06T22:32:19.559Z,44.71
2018-07-06T22:34:48.178Z,43.86
2018-07-06T22:37:16.814Z,43.86
2018-07-06T22:39:45.547Z,44.32
2018-07-06T22:42:14.156Z,44.10
2018-07-06T22:44:42.819Z,44.01
2018-07-06T22:47:11.450Z,44.21
2018-07-06T22:49:40.080Z,44.85
2018-07-06T22:52:08.711Z,44.48
2018-07-06T22:54:37.251Z,44.29
2018-07-06T22:57:05.902Z,44.80
2018-07-06T22:59:34.527Z,44.70
2018-07-06T23:02:03.147Z,44.64
2018-07-06T23:04:31.703Z,45.32
2018-07-06T23:07:00.512Z,45.37
2018-07-06T23:09:29.066Z,45.76
2018-07-06T23:11:58.087Z,45.37
2018-07-06T23:14:26.856Z,45.04
2018-07-06T23:16:55.478Z,45.94
2018-07-06T23:19:24.427Z,45.33
2018-07-06T23:21:53.474Z,45.64
2018-07-06T23:24:22.145Z,46.02
2018-07-06T23:26:51.183Z,45.35
2018-07-06T23:29:19.855Z,46.51
2018-07-06T23:31:48.821Z,47.18
2018-07-06T23:34:17.559Z,46.93
2018-07-06T23:36:46.183Z,46.92
2018-07-06T23:39:15.166Z,47.30
2018-07-06T23:41:44.230Z,46.92
2018-07-06T23:44:13.362Z,46.41
2018-07-06T23:46:42.581Z,46.35
2018-07-06T23:49:11.329Z,47.38
2018-07-06T23:51:40.434Z,46.77
2018-07-06T23:54:09.113Z,47.10
2018-07-06T23:56:37.866Z,46.77
2018-07-06T23:59:06.592Z,47.36
